sensor_id;sensor_type;location;lat;lon;timestamp;pressure;altitude;pressure_sealevel;temperature;humidity
67740;BME280;54536;50.090;14.420;2023-05-14T00:00:12;99754.25;;;16.81;48.29
67740;BME280;54536;50.090;14.420;2023-05-14T00:02:58;99755.06;;;16.81;48.06
67740;BME280;54536;50.090;14.420;2023-05-14T00:05:25;99760.53;;;16.80;47.97
67740;BME280;54536;50.090;14.420;2023-05-14T00:07:51;99750.88;;;16.71;48.87
67740;BME280;54536;50.090;14.420;2023-05-14T00:10:17;99752.19;;;16.67;48.67
67740;BME280;54536;50.090;14.420;2023-05-14T00:12:45;99754.06;;;16.58;48.83
67740;BME280;54536;50.090;14.420;2023-05-14T00:15:11;99748.22;;;16.62;49.31
67740;BME280;54536;50.090;14.420;2023-05-14T00:17:37;99744.09;;;16.52;49.63
67740;BME280;54536;50.090;14.420;2023-05-14T00:20:05;99741.75;;;16.32;49.65
67740;BME280;54536;50.090;14.420;2023-05-14T00:22:34;99735.97;;;16.29;50.41
67740;BME280;54536;50.090;14.420;2023-05-14T00:25:02;99735.59;;;16.24;50.21
67740;BME280;54536;50.090;14.420;2023-05-14T00:27:28;99740.59;;;16.35;49.67
67740;BME280;54536;50.090;14.420;2023-05-14T00:29:54;99736.28;;;16.34;49.77
67740;BME280;54536;50.090;14.420;2023-05-14T00:32:20;99742.91;;;16.30;50.60
67740;BME280;54536;50.090;14.420;2023-05-14T00:34:47;99737.63;;;16.46;50.19
67740;BME280;54536;50.090;14.420;2023-05-14T00:37:13;99740.41;;;16.20;50.24
67740;BME280;54536;50.090;14.420;2023-05-14T00:39:39;99745.91;;;16.27;50.13
67740;BME280;54536;50.090;14.420;2023-05-14T00:42:05;99742.75;;;16.23;50.55
67740;BME280;54536;50.090;14.420;2023-05-14T00:44:32;99732.66;;;16.35;49.81
67740;BME280;54536;50.090;14.420;2023-05-14T00:46:58;99739.09;;;16.41;49.63
67740;BME280;54536;50.090;14.420;2023-05-14T00:49:25;99735.94;;;16.37;49.48
67740;BME280;54536;50.090;14.420;2023-05-14T00:51:53;99740.28;;;16.46;49.85
67740;BME280;54536;50.090;14.420;2023-05-14T00:54:20;99742.59;;;16.49;50.10
67740;BME280;54536;50.090;14.420;2023-05-14T00:56:47;99737.13;;;16.43;50.04
67740;BME280;54536;50.090;14.420;2023-05-14T00:59:13;99739.25;;;16.47;49.80
67740;BME280;54536;50.090;14.420;2023-05-14T01:01:39;99745.56;;;16.38;49.99
67740;BME280;54536;50.090;14.420;2023-05-14T01:04:06;99741.59;;;16.42;49.35
67740;BME280;54536;50.090;14.420;2023-05-14T01:07:35;99739.28;;;16.39;49.50
67740;BME280;54536;50.090;14.420;2023-05-14T01:10:10;99737.13;;;16.43;49.87
67740;BME280;54536;50.090;14.420;2023-05-14T01:12:54;99729.00;;;16.36;50.11
67740;BME280;54536;50.090;14.420;2023-05-14T01:15:28;99723.16;;;16.41;49.96
67740;BME280;54536;50.090;14.420;2023-05-14T01:17:59;99726.66;;;16.41;49.53
67740;BME280;54536;50.090;14.420;2023-05-14T01:20:26;99720.69;;;16.39;49.92
67740;BME280;54536;50.090;14.420;2023-05-14T01:22:52;99732.78;;;16.33;50.51
67740;BME280;54536;50.090;14.420;2023-05-14T01:25:19;99733.63;;;16.42;49.44
67740;BME280;54536;50.090;14.420;2023-05-14T01:27:49;99735.09;;;16.45;50.09
67740;BME280;54536;50.090;14.420;2023-05-14T01:30:20;99727.34;;;16.35;49.65
67740;BME280;54536;50.090;14.420;2023-05-14T01:32:50;99724.84;;;16.42;49.84
67740;BME280;54536;50.090;14.420;2023-05-14T01:35:25;99717.69;;;16.34;49.84
67740;BME280;54536;50.090;14.420;2023-05-14T01:37:54;99711.06;;;16.30;50.29
67740;BME280;54536;50.090;14.420;2023-05-14T01:40:22;99715.53;;;16.21;51.17
67740;BME280;54536;50.090;14.420;2023-05-14T01:42:49;99713.38;;;16.17;51.35
67740;BME280;54536;50.090;14.420;2023-05-14T01:45:22;99714.53;;;16.14;51.33
67740;BME280;54536;50.090;14.420;2023-05-14T01:47:49;99712.38;;;16.09;51.22
67740;BME280;54536;50.090;14.420;2023-05-14T01:50:16;99707.22;;;16.08;51.80
67740;BME280;54536;50.090;14.420;2023-05-14T01:52:42;99709.22;;;16.14;51.43
67740;BME280;54536;50.090;14.420;2023-05-14T01:55:09;99700.94;;;16.09;51.18
67740;BME280;54536;50.090;14.420;2023-05-14T01:57:35;99701.09;;;16.07;51.87
67740;BME280;54536;50.090;14.420;2023-05-14T02:00:01;99707.72;;;16.03;52.16
67740;BME280;54536;50.090;14.420;2023-05-14T02:02:28;99698.28;;;16.01;52.03
67740;BME280;54536;50.090;14.420;2023-05-14T02:04:58;99701.25;;;15.98;52.64
67740;BME280;54536;50.090;14.420;2023-05-14T02:07:24;99697.91;;;15.87;52.57
67740;BME280;54536;50.090;14.420;2023-05-14T02:09:50;99700.56;;;15.87;52.62
67740;BME280;54536;50.090;14.420;2023-05-14T02:12:16;99700.53;;;15.79;53.63
67740;BME280;54536;50.090;14.420;2023-05-14T02:14:43;99692.44;;;15.89;53.31
67740;BME280;54536;50.090;14.420;2023-05-14T02:17:09;99686.97;;;15.90;53.05
67740;BME280;54536;50.090;14.420;2023-05-14T02:19:35;99688.13;;;15.88;53.05
67740;BME280;54536;50.090;14.420;2023-05-14T02:22:04;99697.25;;;16.02;52.99
67740;BME280;54536;50.090;14.420;2023-05-14T02:24:30;99703.22;;;15.87;53.11
67740;BME280;54536;50.090;14.420;2023-05-14T02:26:56;99703.22;;;15.87;52.80
67740;BME280;54536;50.090;14.420;2023-05-14T02:29:25;99704.53;;;15.91;52.74
67740;BME280;54536;50.090;14.420;2023-05-14T02:31:51;99697.59;;;15.90;52.50
67740;BME280;54536;50.090;14.420;2023-05-14T02:34:18;99701.75;;;15.93;53.08
67740;BME280;54536;50.090;14.420;2023-05-14T02:36:44;99697.91;;;15.96;52.81
67740;BME280;54536;50.090;14.420;2023-05-14T02:39:10;99691.63;;;15.97;52.34
67740;BME280;54536;50.090;14.420;2023-05-14T02:41:36;99692.78;;;15.94;52.80
67740;BME280;54536;50.090;14.420;2023-05-14T02:44:03;99688.84;;;16.06;52.40
67740;BME280;54536;50.090;14.420;2023-05-14T02:46:30;99689.78;;;15.89;52.77
67740;BME280;54536;50.090;14.420;2023-05-14T02:48:57;99688.16;;;16.04;52.63
67740;BME280;54536;50.090;14.420;2023-05-14T02:51:23;99685.69;;;16.03;52.09
67740;BME280;54536;50.090;14.420;2023-05-14T02:53:50;99681.34;;;16.02;52.44
67740;BME280;54536;50.090;14.420;2023-05-14T02:56:16;99683.69;;;16.05;52.30
67740;BME280;54536;50.090;14.420;2023-05-14T02:58:42;99682.69;;;15.98;52.64
67740;BME280;54536;50.090;14.420;2023-05-14T03:01:08;99678.31;;;15.72;53.79
67740;BME280;54536;50.090;14.420;2023-05-14T03:03:35;99679.69;;;15.84;53.86
67740;BME280;54536;50.090;14.420;2023-05-14T03:06:03;99678.81;;;15.76;53.38
67740;BME280;54536;50.090;14.420;2023-05-14T03:08:30;99684.81;;;15.78;53.62
67740;BME280;54536;50.090;14.420;2023-05-14T03:10:56;99678.81;;;15.67;54.35
67740;BME280;54536;50.090;14.420;2023-05-14T03:13:23;99687.44;;;15.70;54.02
67740;BME280;54536;50.090;14.420;2023-05-14T03:15:49;99684.97;;;15.76;54.36
67740;BME280;54536;50.090;14.420;2023-05-14T03:18:20;99680.66;;;15.67;54.43
67740;BME280;54536;50.090;14.420;2023-05-14T03:20:46;99684.13;;;15.67;53.82
67740;BME280;54536;50.090;14.420;2023-05-14T03:23:13;99685.78;;;15.68;54.37
67740;BME280;54536;50.090;14.420;2023-05-14T03:25:39;99681.75;;;15.64;54.60
67740;BME280;54536;50.090;14.420;2023-05-14T03:28:06;99684.81;;;15.70;54.28
67740;BME280;54536;50.090;14.420;2023-05-14T03:30:35;99684.81;;;15.70;54.66
67740;BME280;54536;50.090;14.420;2023-05-14T03:33:01;99688.09;;;15.72;54.84
67740;BME280;54536;50.090;14.420;2023-05-14T03:35:27;99677.28;;;15.65;54.29
67740;BME280;54536;50.090;14.420;2023-05-14T03:37:54;99681.72;;;15.56;55.22
67740;BME280;54536;50.090;14.420;2023-05-14T03:40:23;99680.56;;;15.51;55.20
67740;BME280;54536;50.090;14.420;2023-05-14T03:42:49;99679.25;;;15.55;54.44
67740;BME280;54536;50.090;14.420;2023-05-14T03:45:15;99675.09;;;15.52;54.97
67740;BME280;54536;50.090;14.420;2023-05-14T03:47:41;99670.34;;;15.64;54.23
67740;BME280;54536;50.090;14.420;2023-05-14T03:50:07;99674.84;;;15.72;54.33
67740;BME280;54536;50.090;14.420;2023-05-14T03:52:34;99670.47;;;15.62;54.58
67740;BME280;54536;50.090;14.420;2023-05-14T03:55:00;99670.97;;;15.66;54.44
67740;BME280;54536;50.090;14.420;2023-05-14T03:57:27;99669.22;;;15.66;55.11
67740;BME280;54536;50.090;14.420;2023-05-14T03:59:53;99678.81;;;15.67;54.63
67740;BME280;54536;50.090;14.420;2023-05-14T04:02:19;99677.50;;;15.72;55.29
67740;BME280;54536;50.090;14.420;2023-05-14T04:04:45;99678.31;;;15.72;54.76
67740;BME280;54536;50.090;14.420;2023-05-14T04:07:12;99674.03;;;15.71;54.77
67740;BME280;54536;50.090;14.420;2023-05-14T04:09:38;99672.38;;;15.70;54.89
67740;BME280;54536;50.090;14.420;2023-05-14T04:12:04;99677.00;;;15.68;54.71
67740;BME280;54536;50.090;14.420;2023-05-14T04:14:31;99674.63;;;15.65;55.03
67740;BME280;54536;50.090;14.420;2023-05-14T04:16:57;99671.88;;;15.66;55.01
67740;BME280;54536;50.090;14.420;2023-05-14T04:19:24;99662.19;;;15.65;55.13
67740;BME280;54536;50.090;14.420;2023-05-14T04:21:50;99670.97;;;15.66;54.90
67740;BME280;54536;50.090;14.420;2023-05-14T04:24:16;99666.06;;;15.71;54.81
67740;BME280;54536;50.090;14.420;2023-05-14T04:26:42;99663.03;;;15.58;55.82
67740;BME280;54536;50.090;14.420;2023-05-14T04:29:08;99666.25;;;15.70;55.37
67740;BME280;54536;50.090;14.420;2023-05-14T04:31:35;99664.75;;;15.67;55.08
67740;BME280;54536;50.090;14.420;2023-05-14T04:34:01;99664.84;;;15.57;55.36
67740;BME280;54536;50.090;14.420;2023-05-14T04:36:27;99665.06;;;15.72;54.73
67740;BME280;54536;50.090;14.420;2023-05-14T04:38:53;99668.41;;;15.74;54.89
67740;BME280;54536;50.090;14.420;2023-05-14T04:41:20;99666.59;;;15.83;54.84
67740;BME280;54536;50.090;14.420;2023-05-14T04:43:49;99661.28;;;15.91;54.52
67740;BME280;54536;50.090;14.420;2023-05-14T04:46:16;99661.25;;;15.75;54.98
67740;BME280;54536;50.090;14.420;2023-05-14T04:48:42;99658.28;;;15.78;54.79
67740;BME280;54536;50.090;14.420;2023-05-14T04:51:08;99654.81;;;15.77;54.92
67740;BME280;54536;50.090;14.420;2023-05-14T04:53:34;99661.75;;;15.70;55.37
67740;BME280;54536;50.090;14.420;2023-05-14T04:56:01;99659.13;;;15.70;55.19
67740;BME280;54536;50.090;14.420;2023-05-14T04:58:27;99661.13;;;15.84;54.82
67740;BME280;54536;50.090;14.420;2023-05-14T05:00:54;99662.94;;;15.92;55.32
67740;BME280;54536;50.090;14.420;2023-05-14T05:03:20;99653.50;;;15.89;54.60
67740;BME280;54536;50.090;14.420;2023-05-14T05:05:46;99653.50;;;15.89;55.07
67740;BME280;54536;50.090;14.420;2023-05-14T05:08:12;99652.50;;;15.90;54.74
67740;BME280;54536;50.090;14.420;2023-05-14T05:10:39;99655.66;;;15.86;55.07
67740;BME280;54536;50.090;14.420;2023-05-14T05:13:05;99652.66;;;15.89;54.68
67740;BME280;54536;50.090;14.420;2023-05-14T05:15:31;99652.16;;;15.85;54.84
67740;BME280;54536;50.090;14.420;2023-05-14T05:17:57;99652.66;;;15.89;55.30
67740;BME280;54536;50.090;14.420;2023-05-14T05:20:23;99647.69;;;15.94;55.01
67740;BME280;54536;50.090;14.420;2023-05-14T05:22:50;99649.84;;;15.99;55.06
67740;BME280;54536;50.090;14.420;2023-05-14T05:25:16;99649.53;;;16.02;55.22
67740;BME280;54536;50.090;14.420;2023-05-14T05:27:42;99650.19;;;15.96;55.41
67740;BME280;54536;50.090;14.420;2023-05-14T05:30:09;99648.19;;;15.98;55.12
67740;BME280;54536;50.090;14.420;2023-05-14T05:32:36;99645.91;;;16.03;54.84
67740;BME280;54536;50.090;14.420;2023-05-14T05:35:03;99654.16;;;16.08;54.85
67740;BME280;54536;50.090;14.420;2023-05-14T05:37:30;99646.22;;;16.16;55.14
67740;BME280;54536;50.090;14.420;2023-05-14T05:39:57;99644.72;;;16.13;54.83
67740;BME280;54536;50.090;14.420;2023-05-14T05:42:23;99642.22;;;16.12;54.52
67740;BME280;54536;50.090;14.420;2023-05-14T05:44:49;99645.06;;;16.19;54.21
67740;BME280;54536;50.090;14.420;2023-05-14T05:47:16;99642.22;;;16.28;54.14
67740;BME280;54536;50.090;14.420;2023-05-14T05:49:42;99645.88;;;16.27;54.14
67740;BME280;54536;50.090;14.420;2023-05-14T05:52:08;99636.59;;;16.23;54.62
67740;BME280;54536;50.090;14.420;2023-05-14T05:54:35;99633.78;;;16.17;54.30
67740;BME280;54536;50.090;14.420;2023-05-14T05:57:01;99638.25;;;16.08;55.39
67740;BME280;54536;50.090;14.420;2023-05-14T05:59:28;99635.28;;;16.11;55.32
67740;BME280;54536;50.090;14.420;2023-05-14T06:01:54;99633.59;;;16.18;54.94
67740;BME280;54536;50.090;14.420;2023-05-14T06:04:20;99641.06;;;16.31;54.49
67740;BME280;54536;50.090;14.420;2023-05-14T06:06:46;99633.44;;;16.36;53.89
67740;BME280;54536;50.090;14.420;2023-05-14T06:09:13;99636.06;;;16.44;54.07
67740;BME280;54536;50.090;14.420;2023-05-14T06:11:39;99631.94;;;16.50;53.06
67740;BME280;54536;50.090;14.420;2023-05-14T06:14:05;99635.91;;;16.54;53.49
67740;BME280;54536;50.090;14.420;2023-05-14T06:16:31;99629.56;;;16.63;52.55
67740;BME280;54536;50.090;14.420;2023-05-14T06:18:58;99626.69;;;16.97;52.46
67740;BME280;54536;50.090;14.420;2023-05-14T06:21:24;99631.91;;;17.22;51.59
67740;BME280;54536;50.090;14.420;2023-05-14T06:23:50;99630.31;;;17.36;50.42
67740;BME280;54536;50.090;14.420;2023-05-14T06:26:16;99633.31;;;17.41;50.50
67740;BME280;54536;50.090;14.420;2023-05-14T06:28:43;99625.94;;;17.51;50.01
67740;BME280;54536;50.090;14.420;2023-05-14T06:31:09;99633.16;;;17.65;49.59
67740;BME280;54536;50.090;14.420;2023-05-14T06:33:36;99633.44;;;17.47;49.98
67740;BME280;54536;50.090;14.420;2023-05-14T06:36:05;99636.97;;;17.40;50.89
67740;BME280;54536;50.090;14.420;2023-05-14T06:38:33;99630.31;;;17.36;50.96
67740;BME280;54536;50.090;14.420;2023-05-14T06:40:59;99626.34;;;17.40;50.94
67740;BME280;54536;50.090;14.420;2023-05-14T06:43:25;99634.13;;;17.41;51.10
67740;BME280;54536;50.090;14.420;2023-05-14T06:45:51;99627.84;;;17.34;51.00
67740;BME280;54536;50.090;14.420;2023-05-14T06:48:19;99630.50;;;17.34;51.18
67740;BME280;54536;50.090;14.420;2023-05-14T06:50:47;99631.28;;;17.43;50.96
67740;BME280;54536;50.090;14.420;2023-05-14T06:53:13;99633.56;;;17.54;50.50
67740;BME280;54536;50.090;14.420;2023-05-14T06:55:40;99637.00;;;17.63;49.44
67740;BME280;54536;50.090;14.420;2023-05-14T06:58:07;99638.53;;;17.57;49.65
67740;BME280;54536;50.090;14.420;2023-05-14T07:00:33;99635.28;;;17.70;49.18
67740;BME280;54536;50.090;14.420;2023-05-14T07:02:59;99633.38;;;17.55;49.90
67740;BME280;54536;50.090;14.420;2023-05-14T07:05:25;99630.06;;;17.53;49.59
67740;BME280;54536;50.090;14.420;2023-05-14T07:07:52;99627.00;;;17.65;49.48
67740;BME280;54536;50.090;14.420;2023-05-14T07:10:18;99625.22;;;17.57;49.52
67740;BME280;54536;50.090;14.420;2023-05-14T07:12:44;99632.88;;;17.60;50.04
67740;BME280;54536;50.090;14.420;2023-05-14T07:15:10;99624.25;;;17.81;48.87
67740;BME280;54536;50.090;14.420;2023-05-14T07:17:37;99619.53;;;17.91;48.41
67740;BME280;54536;50.090;14.420;2023-05-14T07:20:04;99614.63;;;17.80;48.46
67740;BME280;54536;50.090;14.420;2023-05-14T07:22:31;99617.97;;;17.82;48.48
67740;BME280;54536;50.090;14.420;2023-05-14T07:24:59;99611.97;;;17.80;48.67
67740;BME280;54536;50.090;14.420;2023-05-14T07:27:25;99602.75;;;17.91;48.81
67740;BME280;54536;50.090;14.420;2023-05-14T07:29:51;99599.56;;;17.95;49.01
67740;BME280;54536;50.090;14.420;2023-05-14T07:32:18;99605.03;;;17.94;48.97
67740;BME280;54536;50.090;14.420;2023-05-14T07:34:44;99603.22;;;17.94;48.21
67740;BME280;54536;50.090;14.420;2023-05-14T07:37:11;99606.41;;;17.90;49.02
67740;BME280;54536;50.090;14.420;2023-05-14T07:39:37;99608.94;;;18.06;48.51
67740;BME280;54536;50.090;14.420;2023-05-14T07:42:04;99598.72;;;17.95;48.10
67740;BME280;54536;50.090;14.420;2023-05-14T07:44:30;99598.47;;;18.05;48.23
67740;BME280;54536;50.090;14.420;2023-05-14T07:46:56;99598.31;;;18.06;48.42
67740;BME280;54536;50.090;14.420;2023-05-14T07:49:22;99595.31;;;18.24;47.58
67740;BME280;54536;50.090;14.420;2023-05-14T07:51:49;99586.16;;;18.56;46.62
67740;BME280;54536;50.090;14.420;2023-05-14T07:54:15;99582.78;;;18.62;46.31
67740;BME280;54536;50.090;14.420;2023-05-14T07:56:42;99585.66;;;18.76;46.17
67740;BME280;54536;50.090;14.420;2023-05-14T07:59:09;99580.41;;;18.82;46.27
67740;BME280;54536;50.090;14.420;2023-05-14T08:01:35;99580.41;;;18.97;46.65
67740;BME280;54536;50.090;14.420;2023-05-14T08:04:02;99573.22;;;18.83;46.03
67740;BME280;54536;50.090;14.420;2023-05-14T08:06:28;99572.19;;;19.13;45.68
67740;BME280;54536;50.090;14.420;2023-05-14T08:08:54;99574.28;;;19.18;45.29
67740;BME280;54536;50.090;14.420;2023-05-14T08:11:21;99567.16;;;19.04;46.04
67740;BME280;54536;50.090;14.420;2023-05-14T08:13:47;99568.59;;;19.06;46.38
67740;BME280;54536;50.090;14.420;2023-05-14T08:16:13;99572.81;;;19.15;46.13
67740;BME280;54536;50.090;14.420;2023-05-14T08:18:39;99562.63;;;19.40;44.83
67740;BME280;54536;50.090;14.420;2023-05-14T08:21:06;99569.31;;;19.51;44.53
67740;BME280;54536;50.090;14.420;2023-05-14T08:23:32;99565.91;;;19.21;44.29
67740;BME280;54536;50.090;14.420;2023-05-14T08:25:59;99559.91;;;19.34;44.67
67740;BME280;54536;50.090;14.420;2023-05-14T08:28:25;99567.63;;;19.29;44.06
67740;BME280;54536;50.090;14.420;2023-05-14T08:30:51;99562.34;;;19.14;45.31
67740;BME280;54536;50.090;14.420;2023-05-14T08:33:17;99565.84;;;19.14;45.24
67740;BME280;54536;50.090;14.420;2023-05-14T08:35:43;99557.13;;;19.06;45.50
67740;BME280;54536;50.090;14.420;2023-05-14T08:38:09;99559.94;;;19.19;45.03
67740;BME280;54536;50.090;14.420;2023-05-14T08:40:36;99555.44;;;19.20;44.43
67740;BME280;54536;50.090;14.420;2023-05-14T08:43:03;99551.19;;;19.25;43.70
67740;BME280;54536;50.090;14.420;2023-05-14T08:45:34;99546.88;;;19.24;43.36
67740;BME280;54536;50.090;14.420;2023-05-14T08:48:02;99544.31;;;19.16;43.54
67740;BME280;54536;50.090;14.420;2023-05-14T08:50:33;99539.94;;;19.08;43.54
67740;BME280;54536;50.090;14.420;2023-05-14T08:53:00;99533.47;;;19.17;43.98
67740;BME280;54536;50.090;14.420;2023-05-14T08:55:27;99537.38;;;19.36;43.37
67740;BME280;54536;50.090;14.420;2023-05-14T08:57:53;99536.47;;;19.51;42.25
67740;BME280;54536;50.090;14.420;2023-05-14T09:00:19;99538.16;;;19.73;41.85
67740;BME280;54536;50.090;14.420;2023-05-14T09:02:46;99528.34;;;19.80;41.24
67740;BME280;54536;50.090;14.420;2023-05-14T09:05:14;99529.63;;;19.84;42.11
67740;BME280;54536;50.090;14.420;2023-05-14T09:07:42;99523.13;;;19.94;41.92
67740;BME280;54536;50.090;14.420;2023-05-14T09:10:09;99515.84;;;20.09;41.87
67740;BME280;54536;50.090;14.420;2023-05-14T09:12:36;99516.41;;;20.04;41.92
67740;BME280;54536;50.090;14.420;2023-05-14T09:15:03;99513.31;;;20.01;42.18
67740;BME280;54536;50.090;14.420;2023-05-14T09:17:29;99516.28;;;19.84;42.56
67740;BME280;54536;50.090;14.420;2023-05-14T09:19:55;99506.03;;;19.88;42.38
67740;BME280;54536;50.090;14.420;2023-05-14T09:22:23;99502.09;;;19.84;42.60
67740;BME280;54536;50.090;14.420;2023-05-14T09:25:02;99494.75;;;19.86;42.35
67740;BME280;54536;50.090;14.420;2023-05-14T09:27:29;99501.28;;;20.11;41.84
67740;BME280;54536;50.090;14.420;2023-05-14T09:30:08;99504.53;;;20.07;42.00
67740;BME280;54536;50.090;14.420;2023-05-14T09:32:38;99492.56;;;19.96;42.18
67740;BME280;54536;50.090;14.420;2023-05-14T09:35:13;99498.66;;;19.90;41.75
67740;BME280;54536;50.090;14.420;2023-05-14T09:37:43;99491.13;;;20.28;40.49
67740;BME280;54536;50.090;14.420;2023-05-14T09:40:10;99485.13;;;20.26;41.12
67740;BME280;54536;50.090;14.420;2023-05-14T09:42:37;99481.28;;;20.35;40.65
67740;BME280;54536;50.090;14.420;2023-05-14T09:45:03;99479.53;;;20.15;40.31
67740;BME280;54536;50.090;14.420;2023-05-14T09:47:30;99480.41;;;20.22;40.52
67740;BME280;54536;50.090;14.420;2023-05-14T09:49:57;99488.91;;;20.04;41.39
67740;BME280;54536;50.090;14.420;2023-05-14T09:52:24;99478.22;;;20.04;40.96
67740;BME280;54536;50.090;14.420;2023-05-14T09:54:53;99478.88;;;20.06;40.61
67740;BME280;54536;50.090;14.420;2023-05-14T09:57:19;99476.78;;;20.01;41.06
67740;BME280;54536;50.090;14.420;2023-05-14T09:59:46;99466.16;;;20.08;40.39
67740;BME280;54536;50.090;14.420;2023-05-14T10:04:53;99462.69;;;20.14;39.41
67740;BME280;54536;50.090;14.420;2023-05-14T10:07:28;99459.69;;;20.30;39.11
67740;BME280;54536;50.090;14.420;2023-05-14T10:10:01;99455.16;;;20.24;38.62
67740;BME280;54536;50.090;14.420;2023-05-14T10:12:32;99458.00;;;20.23;38.58
67740;BME280;54536;50.090;14.420;2023-05-14T10:15:11;99453.94;;;20.33;39.88
67740;BME280;54536;50.090;14.420;2023-05-14T10:17:43;99452.69;;;20.29;39.31
67740;BME280;54536;50.090;14.420;2023-05-14T10:20:14;99451.53;;;20.39;38.45
67740;BME280;54536;50.090;14.420;2023-05-14T10:22:42;99453.47;;;20.51;39.26
67740;BME280;54536;50.090;14.420;2023-05-14T10:25:11;99451.88;;;20.64;38.19
67740;BME280;54536;50.090;14.420;2023-05-14T10:27:39;99446.19;;;20.39;38.19
67740;BME280;54536;50.090;14.420;2023-05-14T10:30:10;99443.53;;;20.45;38.77
67740;BME280;54536;50.090;14.420;2023-05-14T10:32:40;99448.97;;;20.24;38.72
67740;BME280;54536;50.090;14.420;2023-05-14T10:35:18;99448.81;;;19.97;39.12
67740;BME280;54536;50.090;14.420;2023-05-14T10:37:45;99444.63;;;20.16;38.34
67740;BME280;54536;50.090;14.420;2023-05-14T10:40:13;99437.66;;;20.15;38.72
67740;BME280;54536;50.090;14.420;2023-05-14T10:42:39;99438.09;;;20.25;38.38
67740;BME280;54536;50.090;14.420;2023-05-14T10:45:10;99443.06;;;20.28;38.22
67740;BME280;54536;50.090;14.420;2023-05-14T10:47:45;99441.97;;;20.57;37.60
67740;BME280;54536;50.090;14.420;2023-05-14T10:50:14;99435.47;;;20.32;38.30
67740;BME280;54536;50.090;14.420;2023-05-14T10:52:44;99440.53;;;20.20;38.62
67740;BME280;54536;50.090;14.420;2023-05-14T10:55:15;99431.72;;;20.26;38.25
67740;BME280;54536;50.090;14.420;2023-05-14T10:57:44;99431.75;;;20.33;38.83
67740;BME280;54536;50.090;14.420;2023-05-14T11:00:14;99424.94;;;20.24;38.41
67740;BME280;54536;50.090;14.420;2023-05-14T11:02:42;99428.59;;;20.16;38.83
67740;BME280;54536;50.090;14.420;2023-05-14T11:05:12;99422.88;;;20.19;38.47
67740;BME280;54536;50.090;14.420;2023-05-14T11:07:41;99427.94;;;20.07;38.57
67740;BME280;54536;50.090;14.420;2023-05-14T11:10:09;99416.88;;;20.10;38.96
67740;BME280;54536;50.090;14.420;2023-05-14T11:12:38;99419.34;;;20.12;39.29
67740;BME280;54536;50.090;14.420;2023-05-14T11:15:08;99420.53;;;20.03;39.24
67740;BME280;54536;50.090;14.420;2023-05-14T11:17:36;99416.66;;;20.05;38.95
67740;BME280;54536;50.090;14.420;2023-05-14T11:20:03;99413.78;;;20.14;39.32
67740;BME280;54536;50.090;14.420;2023-05-14T11:22:34;99413.78;;;20.14;38.97
67740;BME280;54536;50.090;14.420;2023-05-14T11:25:01;99402.34;;;20.26;38.63
67740;BME280;54536;50.090;14.420;2023-05-14T11:27:28;99408.78;;;20.39;37.77
67740;BME280;54536;50.090;14.420;2023-05-14T11:29:58;99400.03;;;20.51;37.76
67740;BME280;54536;50.090;14.420;2023-05-14T11:32:26;99404.16;;;20.54;37.32
67740;BME280;54536;50.090;14.420;2023-05-14T11:34:52;99398.84;;;20.67;37.24
67740;BME280;54536;50.090;14.420;2023-05-14T11:37:18;99408.72;;;20.67;36.90
67740;BME280;54536;50.090;14.420;2023-05-14T11:39:52;99399.66;;;20.61;37.21
67740;BME280;54536;50.090;14.420;2023-05-14T11:42:20;99410.56;;;20.73;36.79
67740;BME280;54536;50.090;14.420;2023-05-14T11:44:49;99410.34;;;20.68;37.46
67740;BME280;54536;50.090;14.420;2023-05-14T11:47:18;99399.03;;;20.66;37.15
67740;BME280;54536;50.090;14.420;2023-05-14T11:49:46;99403.31;;;20.53;37.94
67740;BME280;54536;50.090;14.420;2023-05-14T11:52:14;99403.97;;;20.69;37.72
67740;BME280;54536;50.090;14.420;2023-05-14T11:54:44;99396.22;;;20.80;37.25
67740;BME280;54536;50.090;14.420;2023-05-14T11:57:12;99399.72;;;20.94;36.88
67740;BME280;54536;50.090;14.420;2023-05-14T11:59:39;99393.56;;;21.14;36.29
67740;BME280;54536;50.090;14.420;2023-05-14T12:02:17;99396.25;;;21.34;35.80
67740;BME280;54536;50.090;14.420;2023-05-14T12:04:49;99391.31;;;21.64;35.07
67740;BME280;54536;50.090;14.420;2023-05-14T12:07:17;99389.38;;;22.17;33.80
67740;BME280;54536;50.090;14.420;2023-05-14T12:09:48;99375.28;;;23.12;31.98
67740;BME280;54536;50.090;14.420;2023-05-14T12:12:17;99366.91;;;22.95;32.04
67740;BME280;54536;50.090;14.420;2023-05-14T12:14:45;99369.41;;;22.90;30.88
67740;BME280;54536;50.090;14.420;2023-05-14T12:17:17;99369.72;;;23.07;30.93
67740;BME280;54536;50.090;14.420;2023-05-14T12:19:46;99364.25;;;23.64;30.33
67740;BME280;54536;50.090;14.420;2023-05-14T12:22:15;99360.16;;;24.83;28.94
67740;BME280;54536;50.090;14.420;2023-05-14T12:24:46;99357.44;;;25.49;27.55
67740;BME280;54536;50.090;14.420;2023-05-14T12:27:24;99341.00;;;25.03;27.20
67740;BME280;54536;50.090;14.420;2023-05-14T12:30:03;99340.81;;;24.74;27.92
67740;BME280;54536;50.090;14.420;2023-05-14T12:32:31;99351.97;;;24.48;28.53
67740;BME280;54536;50.090;14.420;2023-05-14T12:34:58;99338.59;;;24.41;28.32
67740;BME280;54536;50.090;14.420;2023-05-14T12:37:26;99333.63;;;24.26;28.35
67740;BME280;54536;50.090;14.420;2023-05-14T12:39:53;99333.06;;;23.69;28.91
67740;BME280;54536;50.090;14.420;2023-05-14T12:42:19;99327.84;;;23.49;29.29
67740;BME280;54536;50.090;14.420;2023-05-14T12:44:46;99330.81;;;23.23;30.11
67740;BME280;54536;50.090;14.420;2023-05-14T12:47:12;99331.22;;;22.95;29.71
67740;BME280;54536;50.090;14.420;2023-05-14T12:49:38;99338.66;;;22.93;29.66
67740;BME280;54536;50.090;14.420;2023-05-14T12:52:04;99327.81;;;23.31;28.84
67740;BME280;54536;50.090;14.420;2023-05-14T12:54:31;99325.91;;;23.38;28.21